createdAt,value
2017-12-05T00:00:08.115Z,15.80
2017-12-05T00:02:36.592Z,17.50
2017-12-05T00:05:04.251Z,17.30
2017-12-05T00:07:31.913Z,19.45
2017-12-05T00:09:59.545Z,16.25
2017-12-05T00:12:27.137Z,15.88
2017-12-05T00:14:54.782Z,14.52
2017-12-05T00:17:22.456Z,16.35
2017-12-05T00:19:50.102Z,16.73
2017-12-05T00:22:17.708Z,15.00
2017-12-05T00:24:46.073Z,16.05
2017-12-05T00:27:14.502Z,14.60
2017-12-05T00:29:42.217Z,16.00
2017-12-05T00:32:09.904Z,15.90
2017-12-05T00:34:37.628Z,14.90
2017-12-05T00:37:05.320Z,14.98
2017-12-05T00:39:33.745Z,14.55
2017-12-05T00:42:01.330Z,14.73
2017-12-05T00:44:29.011Z,15.15
2017-12-05T00:46:56.691Z,13.93
2017-12-05T00:49:24.389Z,14.75
2017-12-05T00:51:52.013Z,16.37
2017-12-05T00:54:20.456Z,15.50
2017-12-05T00:56:48.167Z,15.52
2017-12-05T00:59:15.817Z,15.20
2017-12-05T01:01:44.257Z,14.73
2017-12-05T01:04:11.872Z,15.65
2017-12-05T01:06:40.246Z,14.23
2017-12-05T01:09:07.856Z,14.73
2017-12-05T01:11:35.558Z,14.93
2017-12-05T01:14:03.161Z,14.45
2017-12-05T01:16:30.799Z,15.05
2017-12-05T01:18:58.416Z,15.52
2017-12-05T01:21:26.035Z,14.77
2017-12-05T01:23:53.686Z,14.75
2017-12-05T01:26:21.344Z,14.38
2017-12-05T01:28:49.000Z,15.43
2017-12-05T01:31:16.622Z,13.07
2017-12-05T01:33:44.208Z,13.95
2017-12-05T01:36:12.640Z,15.07
2017-12-05T01:38:40.294Z,13.35
2017-12-05T01:41:07.981Z,14.05
2017-12-05T01:43:35.649Z,15.30
2017-12-05T01:46:03.263Z,14.25
2017-12-05T01:48:30.975Z,13.98
2017-12-05T01:50:58.585Z,14.65
2017-12-05T01:53:26.968Z,14.35
2017-12-05T01:55:55.358Z,13.77
2017-12-05T01:58:23.006Z,13.40
2017-12-05T02:00:51.585Z,15.00
2017-12-05T02:03:19.219Z,14.63
2017-12-05T02:05:46.876Z,13.48
2017-12-05T02:08:14.695Z,14.43
2017-12-05T02:10:42.312Z,13.80
2017-12-05T02:13:09.972Z,15.18
2017-12-05T02:15:37.620Z,17.05
2017-12-05T02:18:05.287Z,14.68
2017-12-05T02:20:32.912Z,14.23
2017-12-05T02:23:00.574Z,15.40
2017-12-05T02:25:28.230Z,15.95
2017-12-05T02:27:55.909Z,16.17
2017-12-05T02:30:23.584Z,15.63
2017-12-05T02:32:51.214Z,12.88
2017-12-05T02:35:18.878Z,14.45
2017-12-05T02:37:46.468Z,14.45
2017-12-05T02:40:14.059Z,14.52
2017-12-05T02:42:41.683Z,13.70
2017-12-05T02:45:09.283Z,14.55
2017-12-05T02:47:37.713Z,14.55
2017-12-05T02:50:05.349Z,14.90
2017-12-05T02:52:33.704Z,14.30
2017-12-05T02:55:01.372Z,15.75
2017-12-05T02:57:29.069Z,15.38
2017-12-05T02:59:56.726Z,13.65
2017-12-05T03:02:24.355Z,14.98
2017-12-05T03:04:51.954Z,14.40
2017-12-05T03:07:19.659Z,13.68
2017-12-05T03:09:47.291Z,14.38
2017-12-05T03:12:14.935Z,13.43
2017-12-05T03:14:42.621Z,11.68
2017-12-05T03:17:10.275Z,13.45
2017-12-05T03:19:37.884Z,13.57
2017-12-05T03:22:05.528Z,14.02
2017-12-05T03:24:33.179Z,12.63
2017-12-05T03:27:00.870Z,12.43
2017-12-05T03:29:28.542Z,14.20
2017-12-05T03:31:56.345Z,14.45
2017-12-05T03:34:23.980Z,13.43
2017-12-05T03:36:51.607Z,13.45
2017-12-05T03:39:19.213Z,12.43
2017-12-05T03:41:47.619Z,12.00
2017-12-05T03:44:15.248Z,13.00
2017-12-05T03:46:42.951Z,13.30
2017-12-05T03:49:10.592Z,11.70
2017-12-05T03:51:38.973Z,14.02
2017-12-05T03:54:06.631Z,12.20
2017-12-05T03:56:34.992Z,12.15
2017-12-05T03:59:02.605Z,13.65
2017-12-05T04:01:32.048Z,12.20
2017-12-05T04:03:59.642Z,12.55
2017-12-05T04:06:27.287Z,14.15
2017-12-05T04:08:55.665Z,13.43
2017-12-05T04:11:24.082Z,13.43
2017-12-05T04:13:51.710Z,13.75
2017-12-05T04:16:20.135Z,10.90
2017-12-05T04:18:47.730Z,11.70
2017-12-05T04:21:15.328Z,11.35
2017-12-05T04:23:43.712Z,11.80
2017-12-05T04:26:11.339Z,12.68
2017-12-05T04:28:39.711Z,11.18
2017-12-05T04:31:07.339Z,13.85
2017-12-05T04:33:34.943Z,12.15
2017-12-05T04:36:02.601Z,12.27
2017-12-05T04:38:30.284Z,14.30
2017-12-05T04:40:58.712Z,13.98
2017-12-05T04:43:26.403Z,14.05
2017-12-05T04:45:54.012Z,11.85
2017-12-05T04:48:21.622Z,12.50
2017-12-05T04:50:49.313Z,13.90
2017-12-05T04:53:17.763Z,13.52
2017-12-05T04:55:45.407Z,12.48
2017-12-05T04:58:13.020Z,12.07
2017-12-05T05:00:41.436Z,13.40
2017-12-05T05:03:09.081Z,13.18
2017-12-05T05:05:36.851Z,13.13
2017-12-05T05:08:04.484Z,14.82
2017-12-05T05:10:32.850Z,15.45
2017-12-05T05:13:01.244Z,12.37
2017-12-05T05:15:29.683Z,13.07
2017-12-05T05:17:57.423Z,14.15
2017-12-05T05:20:25.066Z,12.85
2017-12-05T05:22:52.668Z,13.45
2017-12-05T05:25:20.292Z,13.38
2017-12-05T05:27:47.963Z,13.10
2017-12-05T05:30:15.554Z,12.82
2017-12-05T05:32:43.186Z,12.13
2017-12-05T05:35:10.846Z,12.82
2017-12-05T05:37:38.452Z,13.38
2017-12-05T05:40:06.062Z,14.30
2017-12-05T05:42:33.729Z,13.15
2017-12-05T05:45:01.322Z,13.40
2017-12-05T05:47:29.342Z,12.93
2017-12-05T05:49:57.807Z,12.00
2017-12-05T05:52:25.441Z,12.57
2017-12-05T05:54:53.067Z,13.32
2017-12-05T05:57:20.710Z,13.40
2017-12-05T05:59:49.125Z,14.45
2017-12-05T06:02:16.781Z,13.23
2017-12-05T06:04:44.461Z,12.40
2017-12-05T06:07:12.078Z,12.23
2017-12-05T06:09:40.479Z,12.60
2017-12-05T06:12:08.099Z,12.55
2017-12-05T06:14:35.693Z,11.38
2017-12-05T06:17:03.389Z,11.30
2017-12-05T06:19:31.042Z,13.38
2017-12-05T06:21:58.658Z,13.40
2017-12-05T06:24:27.123Z,13.95
2017-12-05T06:26:54.800Z,15.43
2017-12-05T06:29:23.147Z,14.07
2017-12-05T06:31:50.821Z,15.77
2017-12-05T06:34:18.448Z,14.70
2017-12-05T06:36:46.024Z,14.40
2017-12-05T06:39:13.734Z,13.95
2017-12-05T06:41:42.160Z,15.27
2017-12-05T06:44:09.784Z,13.95
2017-12-05T06:46:38.198Z,15.35
2017-12-05T06:49:05.845Z,14.50
2017-12-05T06:51:33.481Z,13.50
2017-12-05T06:54:01.857Z,13.85
2017-12-05T06:56:30.272Z,15.70
2017-12-05T06:58:57.926Z,13.13
2017-12-05T07:01:25.536Z,13.62
2017-12-05T07:03:53.208Z,14.87
2017-12-05T07:06:20.891Z,14.57
2017-12-05T07:08:49.324Z,15.15
2017-12-05T07:11:16.924Z,13.48
2017-12-05T07:13:44.528Z,13.13
2017-12-05T07:16:12.238Z,13.10
2017-12-05T07:18:39.834Z,13.07
2017-12-05T07:21:07.558Z,12.65
2017-12-05T07:23:35.235Z,12.77
2017-12-05T07:26:02.926Z,13.07
2017-12-05T07:28:31.301Z,13.30
2017-12-05T07:30:59.670Z,13.90
2017-12-05T07:33:28.026Z,14.90
2017-12-05T07:35:55.664Z,13.80
2017-12-05T07:38:23.368Z,13.82
2017-12-05T07:40:51.804Z,12.25
2017-12-05T07:43:19.501Z,14.82
2017-12-05T07:45:48.108Z,14.00
2017-12-05T07:48:16.489Z,12.93
2017-12-05T07:50:44.913Z,13.65
2017-12-05T07:53:12.536Z,11.82
2017-12-05T07:55:40.378Z,12.02
2017-12-05T07:58:09.087Z,12.43
2017-12-05T08:00:36.780Z,10.48
2017-12-05T08:03:04.427Z,11.52
2017-12-05T08:05:32.064Z,10.90
2017-12-05T08:08:00.534Z,12.00
2017-12-05T08:10:28.263Z,12.25
2017-12-05T08:12:55.909Z,12.90
2017-12-05T08:15:24.347Z,12.68
2017-12-05T08:17:52.926Z,12.60
2017-12-05T08:20:20.805Z,13.88
2017-12-05T08:22:49.279Z,12.70
2017-12-05T08:25:17.522Z,12.75
2017-12-05T08:27:45.934Z,14.13
2017-12-05T08:30:14.390Z,12.88
2017-12-05T08:32:42.272Z,12.63
2017-12-05T08:35:15.106Z,13.73
2017-12-05T08:37:42.765Z,12.88
2017-12-05T08:40:10.386Z,11.98
2017-12-05T08:42:38.031Z,13.32
2017-12-05T08:45:06.496Z,13.20
2017-12-05T08:47:34.161Z,11.77
2017-12-05T08:50:02.656Z,12.55
2017-12-05T08:52:30.530Z,12.40
2017-12-05T08:54:58.225Z,13.65
2017-12-05T08:57:25.918Z,13.50
2017-12-05T08:59:53.634Z,14.48
2017-12-05T09:02:21.939Z,13.23
2017-12-05T09:04:49.666Z,14.02
2017-12-05T09:07:17.330Z,13.98
2017-12-05T09:09:44.927Z,13.68
2017-12-05T09:12:12.701Z,16.27
2017-12-05T09:14:40.315Z,13.85
2017-12-05T09:17:07.982Z,15.68
2017-12-05T09:19:35.610Z,14.77
2017-12-05T09:22:03.389Z,13.88
2017-12-05T09:24:31.061Z,14.00
2017-12-05T09:26:58.713Z,14.10
2017-12-05T09:29:26.352Z,14.73
2017-12-05T09:31:53.990Z,13.62
2017-12-05T09:34:22.531Z,14.73
2017-12-05T09:36:50.184Z,13.13
2017-12-05T09:39:18.818Z,14.77
2017-12-05T09:41:47.315Z,12.32
2017-12-05T09:44:14.980Z,11.80
2017-12-05T09:46:42.642Z,13.90
2017-12-05T09:49:10.388Z,12.45
2017-12-05T09:51:38.057Z,12.75
2017-12-05T09:54:05.710Z,12.35
2017-12-05T09:56:33.357Z,13.48
2017-12-05T09:59:01.783Z,14.98
2017-12-05T10:01:29.735Z,12.73
2017-12-05T10:03:57.488Z,13.60
2017-12-05T10:06:25.168Z,14.32
2017-12-05T10:08:52.780Z,14.38
2017-12-05T10:11:20.694Z,14.63
2017-12-05T10:13:48.382Z,14.98
2017-12-05T10:16:16.015Z,12.93
2017-12-05T10:18:43.682Z,14.75
2017-12-05T10:21:11.315Z,11.52
2017-12-05T10:23:39.672Z,12.57
2017-12-05T10:26:08.125Z,13.38
2017-12-05T10:28:35.718Z,13.38
2017-12-05T10:31:03.331Z,13.68
2017-12-05T10:33:30.953Z,12.93
2017-12-05T10:35:58.546Z,12.35
2017-12-05T10:38:26.546Z,13.15
2017-12-05T10:40:54.192Z,12.48
2017-12-05T10:43:21.951Z,12.50
2017-12-05T10:45:49.633Z,12.98
2017-12-05T10:48:17.348Z,11.45
2017-12-05T10:50:45.095Z,12.93
2017-12-05T10:53:12.943Z,13.50
2017-12-05T10:55:40.827Z,13.10
2017-12-05T10:58:08.676Z,15.82
2017-12-05T11:00:37.486Z,15.30
2017-12-05T11:03:05.227Z,15.27
2017-12-05T11:05:33.147Z,12.93
2017-12-05T11:08:01.488Z,15.20
2017-12-05T11:10:30.038Z,14.85
2017-12-05T11:12:58.078Z,14.95
2017-12-05T11:15:26.765Z,14.90
2017-12-05T11:17:56.847Z,15.02
2017-12-05T11:20:24.691Z,14.52
2017-12-05T11:22:52.448Z,15.82
2017-12-05T11:25:20.320Z,15.00
2017-12-05T11:27:49.822Z,14.87
2017-12-05T11:30:17.899Z,15.93
2017-12-05T11:32:45.832Z,16.20
2017-12-05T11:35:13.939Z,13.15
2017-12-05T11:37:41.971Z,14.90
2017-12-05T11:40:10.068Z,14.35
2017-12-05T11:42:38.565Z,15.57
2017-12-05T11:45:07.051Z,14.93
2017-12-05T11:47:35.398Z,15.73
2017-12-05T11:50:03.556Z,15.80
2017-12-05T11:52:31.290Z,19.05
2017-12-05T11:54:59.088Z,15.85
2017-12-05T11:57:27.718Z,14.00
2017-12-05T11:59:57.153Z,15.13
2017-12-05T12:02:25.890Z,15.50
2017-12-05T12:04:59.546Z,14.02
2017-12-05T12:07:29.350Z,14.15
2017-12-05T12:09:58.343Z,13.43
2017-12-05T12:12:26.278Z,13.52
2017-12-05T12:14:54.172Z,12.60
2017-12-05T12:17:22.279Z,14.07
2017-12-05T12:19:51.222Z,13.65
2017-12-05T12:22:18.964Z,13.55
2017-12-05T12:24:47.686Z,16.27
2017-12-05T12:27:15.739Z,17.08
2017-12-05T12:29:44.125Z,15.23
2017-12-05T12:32:12.060Z,16.20
2017-12-05T12:34:40.300Z,16.55
2017-12-05T12:37:08.019Z,17.17
2017-12-05T12:39:36.161Z,13.62
2017-12-05T12:42:04.122Z,13.75
2017-12-05T12:44:32.187Z,15.80
2017-12-05T12:47:01.863Z,13.75
2017-12-05T12:49:30.007Z,12.18
2017-12-05T12:51:58.043Z,14.93
2017-12-05T12:54:26.440Z,12.35
2017-12-05T12:56:54.447Z,14.32
2017-12-05T12:59:22.927Z,14.32
2017-12-05T13:01:51.061Z,13.68
2017-12-05T13:04:19.471Z,13.15
2017-12-05T13:06:47.230Z,12.15
2017-12-05T13:09:15.306Z,13.68
2017-12-05T13:11:43.220Z,12.75
2017-12-05T13:14:10.882Z,14.02
2017-12-05T13:16:39.317Z,14.52
2017-12-05T13:19:07.845Z,12.57
2017-12-05T13:21:35.542Z,13.85
2017-12-05T13:24:03.221Z,13.80
2017-12-05T13:26:31.074Z,13.70
2017-12-05T13:28:59.832Z,14.02
2017-12-05T13:31:27.546Z,15.10
2017-12-05T13:33:55.588Z,14.10
2017-12-05T13:36:23.323Z,15.65
2017-12-05T13:38:51.258Z,13.70
2017-12-05T13:41:19.056Z,13.35
2017-12-05T13:43:47.071Z,13.35
2017-12-05T13:46:16.136Z,14.10
2017-12-05T13:48:43.907Z,12.98
2017-12-05T13:51:12.673Z,14.40
2017-12-05T13:53:40.699Z,14.10
2017-12-05T13:56:08.487Z,14.20
2017-12-05T13:58:36.648Z,15.38
2017-12-05T14:01:04.322Z,14.52
2017-12-05T14:03:32.283Z,13.55
2017-12-05T14:05:59.963Z,14.30
2017-12-05T14:08:27.642Z,14.80
2017-12-05T14:10:55.348Z,14.63
2017-12-05T14:13:24.170Z,14.55
2017-12-05T14:15:53.554Z,14.23
2017-12-05T14:18:21.616Z,13.57
2017-12-05T14:20:49.434Z,12.70
2017-12-05T14:23:17.468Z,14.80
2017-12-05T14:25:45.178Z,13.02
2017-12-05T14:28:12.998Z,15.50
2017-12-05T14:30:41.066Z,14.52
2017-12-05T14:33:09.781Z,13.43
2017-12-05T14:38:42.017Z,14.20
2017-12-05T14:41:09.702Z,13.60
2017-12-05T14:43:37.453Z,13.80
2017-12-05T14:46:05.577Z,14.27
2017-12-05T14:48:34.189Z,19.40
2017-12-05T14:51:02.739Z,15.50
2017-12-05T14:53:31.784Z,14.45
2017-12-05T14:56:00.377Z,12.98
2017-12-05T14:58:28.604Z,13.77
2017-12-05T15:00:56.386Z,14.60
2017-12-05T15:03:28.302Z,14.60
2017-12-05T15:05:56.172Z,15.75
2017-12-05T15:08:25.498Z,15.07
2017-12-05T15:10:53.318Z,14.95
2017-12-05T15:13:20.999Z,16.02
2017-12-05T15:15:48.800Z,14.35
2017-12-05T15:18:16.524Z,15.65
2017-12-05T15:20:44.464Z,15.15
2017-12-05T15:23:12.586Z,14.95
2017-12-05T15:25:44.407Z,15.32
2017-12-05T15:28:12.438Z,17.17
2017-12-05T15:30:40.236Z,15.90
2017-12-05T15:33:08.143Z,15.85
2017-12-05T15:35:36.967Z,15.63
2017-12-05T15:38:04.884Z,15.10
2017-12-05T15:40:32.976Z,16.60
2017-12-05T15:43:00.922Z,15.35
2017-12-05T15:45:28.984Z,16.40
2017-12-05T15:47:57.077Z,16.92
2017-12-05T15:50:25.038Z,17.70
2017-12-05T15:52:54.613Z,16.25
2017-12-05T15:55:22.523Z,18.33
2017-12-05T15:57:51.819Z,18.05
2017-12-05T16:00:20.786Z,16.65
2017-12-05T16:02:50.014Z,17.98
2017-12-05T16:05:17.922Z,16.73
2017-12-05T16:07:45.805Z,19.12
2017-12-05T16:10:18.142Z,18.75
2017-12-05T16:12:46.498Z,19.00
2017-12-05T16:15:15.173Z,17.27
2017-12-05T16:17:43.280Z,19.45
2017-12-05T16:20:11.357Z,19.23
2017-12-05T16:22:39.161Z,18.67
2017-12-05T16:25:10.613Z,19.75
2017-12-05T16:27:44.896Z,19.70
2017-12-05T16:30:14.919Z,23.38
2017-12-05T16:32:43.049Z,22.98
2017-12-05T16:35:11.062Z,20.77
2017-12-05T16:37:39.049Z,20.88
2017-12-05T16:40:06.923Z,21.52
2017-12-05T16:42:34.868Z,20.52
2017-12-05T16:45:02.674Z,22.55
2017-12-05T16:47:30.583Z,20.73
2017-12-05T16:49:58.302Z,21.80
2017-12-05T16:52:25.995Z,17.87
2017-12-05T16:54:53.765Z,22.30
2017-12-05T16:57:21.431Z,20.55
2017-12-05T16:59:49.094Z,19.55
2017-12-05T17:02:16.914Z,20.37
2017-12-05T17:04:45.225Z,20.60
2017-12-05T17:07:13.847Z,20.00
2017-12-05T17:09:41.648Z,20.45
2017-12-05T17:12:11.693Z,20.05
2017-12-05T17:14:43.284Z,20.00
2017-12-05T17:17:13.620Z,18.85
2017-12-05T17:19:45.884Z,19.37
2017-12-05T17:22:16.801Z,18.65
2017-12-05T17:24:50.175Z,20.37
2017-12-05T17:27:20.301Z,19.50
2017-12-05T17:29:51.409Z,19.30
2017-12-05T17:32:21.202Z,19.45
2017-12-05T17:34:51.151Z,20.23
2017-12-05T17:37:21.045Z,19.70
2017-12-05T17:39:56.236Z,20.02
2017-12-05T17:42:29.955Z,18.58
2017-12-05T17:45:00.169Z,18.08
2017-12-05T17:47:30.243Z,18.30
2017-12-05T17:50:00.213Z,17.20
2017-12-05T17:52:38.957Z,18.17
2017-12-05T17:55:09.711Z,19.23
2017-12-05T17:57:39.877Z,19.98
2017-12-05T18:00:10.137Z,18.00
2017-12-05T18:02:40.402Z,21.35
2017-12-05T18:05:10.831Z,19.17
2017-12-05T18:07:44.819Z,18.80
2017-12-05T18:10:15.647Z,19.87
2017-12-05T18:12:53.257Z,18.35
2017-12-05T18:15:28.672Z,19.73
2017-12-05T18:17:58.682Z,19.58
2017-12-05T18:20:29.805Z,18.83
2017-12-05T18:23:00.531Z,18.00
2017-12-05T18:25:28.396Z,18.30
2017-12-05T18:27:56.042Z,15.80
2017-12-05T18:30:24.665Z,18.50
2017-12-05T18:32:52.378Z,18.75
2017-12-05T18:35:20.056Z,17.48
2017-12-05T18:37:48.514Z,15.70
2017-12-05T18:40:16.248Z,16.52
2017-12-05T18:42:44.078Z,17.10
2017-12-05T18:45:11.873Z,17.77
2017-12-05T18:47:39.630Z,17.27
2017-12-05T18:50:08.082Z,16.62
2017-12-05T18:52:37.050Z,16.65
2017-12-05T18:55:04.814Z,16.15
2017-12-05T18:57:32.666Z,18.85
2017-12-05T19:00:00.556Z,16.37
2017-12-05T19:02:28.262Z,15.88
2017-12-05T19:04:55.939Z,16.27
2017-12-05T19:07:23.628Z,17.02
2017-12-05T19:09:51.500Z,15.52
2017-12-05T19:12:19.268Z,14.20
2017-12-05T19:14:47.005Z,17.08
2017-12-05T19:17:14.637Z,17.25
2017-12-05T19:19:43.195Z,16.20
2017-12-05T19:22:11.079Z,16.50
2017-12-05T19:24:38.832Z,16.60
2017-12-05T19:27:06.592Z,16.77
2017-12-05T19:29:35.251Z,16.15
2017-12-05T19:32:03.131Z,16.90
2017-12-05T19:34:30.810Z,16.67
2017-12-05T19:36:59.298Z,17.17
2017-12-05T19:39:27.058Z,15.75
2017-12-05T19:41:55.641Z,15.65
2017-12-05T19:44:23.382Z,15.80
2017-12-05T19:46:51.125Z,15.07
2017-12-05T19:49:18.808Z,19.33
2017-12-05T19:51:46.487Z,16.02
2017-12-05T19:54:14.165Z,16.65
2017-12-05T19:56:41.877Z,15.45
2017-12-05T19:59:09.565Z,15.05
2017-12-05T20:01:39.403Z,16.00
2017-12-05T20:04:07.173Z,14.95
2017-12-05T20:06:34.890Z,15.73
2017-12-05T20:09:02.723Z,15.80
2017-12-05T20:11:31.260Z,15.00
2017-12-05T20:13:58.899Z,15.15
2017-12-05T20:16:26.558Z,15.30
2017-12-05T20:18:54.244Z,13.10
2017-12-05T20:21:22.046Z,13.40
2017-12-05T20:23:49.671Z,14.73
2017-12-05T20:26:17.479Z,13.60
2017-12-05T20:28:45.371Z,15.20
2017-12-05T20:31:13.316Z,14.32
2017-12-05T20:33:41.022Z,14.00
2017-12-05T20:36:08.718Z,13.50
2017-12-05T20:38:36.470Z,15.20
2017-12-05T20:41:05.114Z,15.13
2017-12-05T20:43:32.774Z,15.80
2017-12-05T20:46:00.530Z,13.77
2017-12-05T20:48:28.163Z,15.18
2017-12-05T20:50:56.902Z,16.45
2017-12-05T20:53:24.552Z,14.50
2017-12-05T20:55:52.298Z,13.55
2017-12-05T20:58:20.696Z,14.95
2017-12-05T21:00:48.286Z,13.55
2017-12-05T21:03:18.010Z,11.75
2017-12-05T21:05:45.727Z,12.57
2017-12-05T21:08:13.411Z,13.15
2017-12-05T21:10:41.033Z,12.20
2017-12-05T21:13:08.728Z,12.82
2017-12-05T21:15:36.341Z,12.30
2017-12-05T21:18:04.224Z,13.25
2017-12-05T21:20:32.043Z,12.07
2017-12-05T21:22:59.929Z,12.05
2017-12-05T21:25:27.542Z,11.95
2017-12-05T21:27:55.409Z,14.43
2017-12-05T21:30:23.122Z,13.55
2017-12-05T21:32:50.820Z,14.40
2017-12-05T21:35:19.360Z,15.00
2017-12-05T21:37:47.142Z,12.93
2017-12-05T21:40:14.912Z,14.27
2017-12-05T21:42:42.602Z,14.35
2017-12-05T21:45:11.098Z,15.18
2017-12-05T21:47:38.846Z,14.27
2017-12-05T21:50:07.378Z,16.20
2017-12-05T21:52:35.170Z,15.02
2017-12-05T21:55:02.944Z,16.10
2017-12-05T21:57:30.679Z,15.63
2017-12-05T21:59:58.371Z,14.93
2017-12-05T22:02:26.026Z,14.65
2017-12-05T22:04:54.598Z,14.27
2017-12-05T22:07:22.334Z,15.38
2017-12-05T22:09:49.948Z,14.85
2017-12-05T22:12:17.590Z,15.80
2017-12-05T22:14:45.210Z,15.35
2017-12-05T22:17:12.856Z,15.23
2017-12-05T22:19:41.279Z,16.60
2017-12-05T22:22:09.055Z,15.60
2017-12-05T22:24:36.845Z,16.60
2017-12-05T22:27:04.606Z,16.90
2017-12-05T22:29:32.358Z,16.60
2017-12-05T22:32:00.130Z,17.92
2017-12-05T22:34:27.847Z,16.80
2017-12-05T22:36:55.612Z,16.48
2017-12-05T22:39:23.668Z,16.05
2017-12-05T22:41:51.672Z,17.33
2017-12-05T22:44:19.463Z,17.60
2017-12-05T22:46:47.384Z,16.27
2017-12-05T22:49:14.985Z,15.68
2017-12-05T22:51:42.724Z,16.83
2017-12-05T22:54:10.592Z,14.98
2017-12-05T22:56:38.328Z,16.48
2017-12-05T22:59:06.151Z,13.85
2017-12-05T23:01:33.857Z,14.20
2017-12-05T23:04:02.435Z,15.30
2017-12-05T23:06:31.172Z,17.00
2017-12-05T23:08:59.164Z,14.45
2017-12-05T23:11:27.166Z,13.38
2017-12-05T23:13:54.918Z,14.98
2017-12-05T23:16:22.722Z,13.93
2017-12-05T23:18:50.444Z,12.65
2017-12-05T23:21:18.302Z,13.07
2017-12-05T23:23:46.190Z,12.48
2017-12-05T23:26:14.358Z,14.48
2017-12-05T23:28:42.116Z,12.80
2017-12-05T23:31:10.808Z,12.30
2017-12-05T23:33:38.455Z,13.85
2017-12-05T23:36:06.222Z,13.85
2017-12-05T23:38:34.674Z,12.32
2017-12-05T23:41:02.516Z,14.00
2017-12-05T23:43:30.289Z,14.05
2017-12-05T23:45:57.954Z,12.50
2017-12-05T23:48:25.737Z,13.40
2017-12-05T23:50:53.556Z,12.23
2017-12-05T23:53:21.379Z,13.15
2017-12-05T23:55:49.163Z,12.40
2017-12-05T23:58:17.124Z,14.43
